createdAt,value
2022-09-11T00:01:16.284Z,8.57
2022-09-11T00:03:44.409Z,8.37
2022-09-11T00:06:28.551Z,9.33
2022-09-11T00:09:00.228Z,7.77
2022-09-11T00:11:34.376Z,9.43
2022-09-11T00:14:01.715Z,7.90
2022-09-11T00:16:34.793Z,8.33
2022-09-11T00:19:11.880Z,8.33
2022-09-11T00:21:38.803Z,7.97
2022-09-11T00:24:05.814Z,9.60
2022-09-11T00:26:32.483Z,8.77
2022-09-11T00:29:02.049Z,10.37
2022-09-11T00:31:30.458Z,9.23
2022-09-11T00:33:57.179Z,8.47
2022-09-11T00:36:31.104Z,10.83
2022-09-11T00:38:58.723Z,10.87
2022-09-11T00:41:36.166Z,10.87
2022-09-11T00:44:07.204Z,8.10
2022-09-11T00:46:50.919Z,9.33
2022-09-11T00:49:39.848Z,7.83
2022-09-11T00:52:13.157Z,9.27
2022-09-11T00:54:47.202Z,10.27
2022-09-11T00:57:13.867Z,9.70
2022-09-11T00:59:43.647Z,7.83
2022-09-11T01:02:15.038Z,7.53
2022-09-11T01:04:41.629Z,9.00
2022-09-11T01:07:08.587Z,9.37
2022-09-11T01:09:35.139Z,11.43
2022-09-11T01:12:14.948Z,7.83
2022-09-11T01:15:29.228Z,8.93
2022-09-11T01:18:14.998Z,7.07
2022-09-11T01:20:59.681Z,9.97
2022-09-11T01:23:40.139Z,7.50
2022-09-11T01:26:35.543Z,8.40
2022-09-11T01:29:28.930Z,7.67
2022-09-11T01:32:30.905Z,8.83
2022-09-11T01:35:11.343Z,9.60
2022-09-11T01:37:44.161Z,8.43
2022-09-11T01:40:35.081Z,6.80
2022-09-11T01:43:15.251Z,8.17
2022-09-11T01:45:46.037Z,7.80
2022-09-11T01:48:17.123Z,7.10
2022-09-11T01:50:47.397Z,7.60
2022-09-11T01:53:17.316Z,11.17
2022-09-11T01:55:50.035Z,8.13
2022-09-11T01:58:36.475Z,8.40
2022-09-11T02:01:15.925Z,10.17
2022-09-11T02:03:54.527Z,7.80
2022-09-11T02:06:26.870Z,7.10
2022-09-11T02:09:09.229Z,7.37
2022-09-11T02:11:40.987Z,7.77
2022-09-11T02:14:42.343Z,10.13
2022-09-11T02:17:43.234Z,8.07
2022-09-11T02:20:10.569Z,8.53
2022-09-11T02:22:37.753Z,8.47
2022-09-11T02:25:05.560Z,10.23
2022-09-11T02:27:33.588Z,8.50
2022-09-11T02:30:00.911Z,11.67
2022-09-11T02:32:27.857Z,9.03
2022-09-11T02:34:55.515Z,10.20
2022-09-11T02:37:33.898Z,8.67
2022-09-11T02:40:28.828Z,7.93
2022-09-11T02:43:22.648Z,7.40
2022-09-11T02:46:08.130Z,8.77
2022-09-11T02:49:16.566Z,10.27
2022-09-11T02:52:06.416Z,9.13
2022-09-11T02:54:58.423Z,9.03
2022-09-11T02:57:30.598Z,11.40
2022-09-11T03:00:04.286Z,8.13
2022-09-11T03:02:33.918Z,9.40
2022-09-11T03:05:00.447Z,10.67
2022-09-11T03:07:27.048Z,12.37
2022-09-11T03:09:53.581Z,12.67
2022-09-11T03:12:20.290Z,12.00
2022-09-11T03:14:46.810Z,15.23
2022-09-11T03:17:13.442Z,12.00
2022-09-11T03:19:40.049Z,12.83
2022-09-11T03:22:06.741Z,14.23
2022-09-11T03:24:33.335Z,15.17
2022-09-11T03:26:59.853Z,14.70
2022-09-11T03:29:26.422Z,13.40
2022-09-11T03:31:53.065Z,16.67
2022-09-11T03:34:19.690Z,15.77
2022-09-11T03:36:47.960Z,15.67
2022-09-11T03:39:14.504Z,15.10
2022-09-11T03:41:41.049Z,16.30
2022-09-11T03:44:08.110Z,16.03
2022-09-11T03:46:35.007Z,19.83
2022-09-11T03:49:02.365Z,16.87
2022-09-11T03:51:28.963Z,16.47
2022-09-11T03:53:55.560Z,24.03
2022-09-11T03:56:22.077Z,16.77
2022-09-11T03:58:48.943Z,17.87
2022-09-11T04:01:18.623Z,19.40
2022-09-11T04:03:45.259Z,17.37
2022-09-11T04:06:11.939Z,16.90
2022-09-11T04:08:41.177Z,15.07
2022-09-11T04:11:08.258Z,20.00
2022-09-11T04:13:36.754Z,18.20
2022-09-11T04:16:10.267Z,19.70
2022-09-11T04:18:39.024Z,18.20
2022-09-11T04:21:06.914Z,21.97
2022-09-11T04:23:34.050Z,19.93
2022-09-11T04:26:00.687Z,23.03
2022-09-11T04:28:31.527Z,22.37
2022-09-11T04:31:03.777Z,20.93
2022-09-11T04:33:30.405Z,24.97
2022-09-11T04:35:56.914Z,25.03
2022-09-11T04:38:23.925Z,26.87
2022-09-11T04:40:50.634Z,24.87
2022-09-11T04:43:18.080Z,23.27
2022-09-11T04:45:44.642Z,25.27
2022-09-11T04:48:11.211Z,25.73
2022-09-11T04:50:37.762Z,24.53
2022-09-11T04:53:04.347Z,24.50
2022-09-11T04:55:30.879Z,23.67
2022-09-11T04:57:57.399Z,24.17
2022-09-11T05:00:24.765Z,24.13
2022-09-11T05:02:51.307Z,23.67
2022-09-11T05:05:17.853Z,22.57
2022-09-11T05:07:44.373Z,25.43
2022-09-11T05:10:11.050Z,22.73
2022-09-11T05:12:37.615Z,25.67
2022-09-11T05:15:04.632Z,22.07
2022-09-11T05:17:31.174Z,24.40
2022-09-11T05:19:58.829Z,26.03
2022-09-11T05:22:25.486Z,22.20
2022-09-11T05:24:52.409Z,24.40
2022-09-11T05:27:19.550Z,27.67
2022-09-11T05:29:46.233Z,24.83
2022-09-11T05:32:13.498Z,24.10
2022-09-11T05:34:40.235Z,26.27
2022-09-11T05:37:06.786Z,27.83
2022-09-11T05:39:33.524Z,28.93
2022-09-11T05:42:00.086Z,29.53
2022-09-11T05:44:26.661Z,26.57
2022-09-11T05:46:53.203Z,28.10
2022-09-11T05:49:21.683Z,25.80
2022-09-11T05:51:48.196Z,31.57
2022-09-11T05:54:15.285Z,30.27
2022-09-11T05:56:41.841Z,31.90
2022-09-11T05:59:14.372Z,33.07
2022-09-11T06:01:42.975Z,31.63
2022-09-11T06:04:10.962Z,31.93
2022-09-11T06:06:37.791Z,34.40
2022-09-11T06:09:05.961Z,31.77
2022-09-11T06:11:32.842Z,29.97
2022-09-11T06:13:59.739Z,30.87
2022-09-11T06:16:26.446Z,31.23
2022-09-11T06:18:54.189Z,30.07
2022-09-11T06:21:23.538Z,29.93
2022-09-11T06:23:51.904Z,28.73
2022-09-11T06:26:21.619Z,27.60
2022-09-11T06:28:49.057Z,26.77
2022-09-11T06:31:18.102Z,27.13
2022-09-11T06:33:45.607Z,26.77
2022-09-11T06:36:17.473Z,23.77
2022-09-11T06:38:44.549Z,27.50
2022-09-11T06:41:13.996Z,24.43
2022-09-11T06:43:41.230Z,26.37
2022-09-11T06:46:13.776Z,24.80
2022-09-11T06:48:44.301Z,25.30
2022-09-11T06:51:12.981Z,22.90
2022-09-11T06:53:41.091Z,24.73
2022-09-11T06:56:10.237Z,25.63
2022-09-11T06:58:36.781Z,24.53
2022-09-11T07:01:08.143Z,24.17
2022-09-11T07:03:34.790Z,24.00
2022-09-11T07:06:01.576Z,23.87
2022-09-11T07:08:28.288Z,25.13
2022-09-11T07:10:55.016Z,22.60
2022-09-11T07:13:24.348Z,23.93
2022-09-11T07:16:02.876Z,21.87
2022-09-11T07:18:34.050Z,22.47
2022-09-11T07:21:00.591Z,25.40
2022-09-11T07:23:27.169Z,20.83
2022-09-11T07:25:54.043Z,22.70
2022-09-11T07:28:21.217Z,21.83
2022-09-11T07:30:50.008Z,19.50
2022-09-11T07:33:16.587Z,19.53
2022-09-11T07:35:43.116Z,18.85
2022-09-11T07:38:09.655Z,20.30
2022-09-11T07:40:36.256Z,21.63
2022-09-11T07:43:03.755Z,19.55
2022-09-11T07:45:30.369Z,16.63
2022-09-11T07:48:01.427Z,18.33
2022-09-11T07:50:28.570Z,19.15
2022-09-11T07:52:55.216Z,18.63
2022-09-11T07:55:21.745Z,18.08
2022-09-11T07:57:50.470Z,17.00
2022-09-11T08:00:17.062Z,20.10
2022-09-11T08:02:43.658Z,17.17
2022-09-11T08:05:10.918Z,18.30
2022-09-11T08:07:37.685Z,19.67
2022-09-11T08:10:26.886Z,15.65
2022-09-11T08:12:55.711Z,17.90
2022-09-11T08:15:24.967Z,17.98
2022-09-11T08:17:51.944Z,18.35
2022-09-11T08:20:18.521Z,17.20
2022-09-11T08:22:45.110Z,15.48
2022-09-11T08:25:11.724Z,16.08
2022-09-11T08:27:38.271Z,16.85
2022-09-11T08:30:05.267Z,16.27
2022-09-11T08:32:31.814Z,15.30
2022-09-11T08:34:58.534Z,16.15
2022-09-11T08:37:25.094Z,15.48
2022-09-11T08:39:51.826Z,16.75
2022-09-11T08:42:18.475Z,16.35
2022-09-11T08:44:51.049Z,16.85
2022-09-11T08:47:24.254Z,15.80
2022-09-11T08:50:01.325Z,14.77
2022-09-11T08:52:27.975Z,15.35
2022-09-11T08:54:58.878Z,17.17
2022-09-11T08:57:40.756Z,14.95
2022-09-11T09:00:18.156Z,15.60
2022-09-11T09:02:46.773Z,13.82
2022-09-11T09:05:24.991Z,15.18
2022-09-11T09:08:38.897Z,13.85
2022-09-11T09:11:28.977Z,16.73
2022-09-11T09:14:32.919Z,12.73
2022-09-11T09:17:27.385Z,14.75
2022-09-11T09:20:09.187Z,13.85
2022-09-11T09:22:47.947Z,13.07
2022-09-11T09:25:18.830Z,13.90
2022-09-11T09:27:48.294Z,11.57
2022-09-11T09:30:18.350Z,14.27
2022-09-11T09:32:55.427Z,12.95
2022-09-11T09:35:42.286Z,13.63
2022-09-11T09:38:20.299Z,12.65
2022-09-11T09:41:05.432Z,13.05
2022-09-11T09:43:52.240Z,15.18
2022-09-11T09:46:41.641Z,13.30
2022-09-11T09:49:14.813Z,13.15
2022-09-11T09:51:41.663Z,13.65
2022-09-11T09:54:14.128Z,13.73
2022-09-11T09:56:43.087Z,12.32
2022-09-11T09:59:18.058Z,10.60
2022-09-11T10:01:47.898Z,11.60
2022-09-11T10:04:26.897Z,12.25
2022-09-11T10:07:05.363Z,10.77
2022-09-11T10:09:32.127Z,11.55
2022-09-11T10:12:06.013Z,11.15
2022-09-11T10:14:56.732Z,11.27
2022-09-11T10:17:31.176Z,10.15
2022-09-11T10:20:25.889Z,10.80
2022-09-11T10:22:55.847Z,11.18
2022-09-11T10:25:27.079Z,10.40
2022-09-11T10:28:09.084Z,11.50
2022-09-11T10:30:39.192Z,12.48
2022-09-11T10:33:37.748Z,10.02
2022-09-11T10:36:08.938Z,9.88
2022-09-11T10:38:47.387Z,11.05
2022-09-11T10:41:14.099Z,9.93
2022-09-11T10:44:06.829Z,10.15
2022-09-11T10:46:40.681Z,9.75
2022-09-11T10:49:23.555Z,9.30
2022-09-11T10:52:08.109Z,9.65
2022-09-11T10:54:54.141Z,9.48
2022-09-11T10:57:41.196Z,9.30
2022-09-11T11:00:30.366Z,11.00
2022-09-11T11:03:18.150Z,11.25
2022-09-11T11:06:04.947Z,11.52
2022-09-11T11:08:46.847Z,10.40
2022-09-11T11:11:34.404Z,11.25
2022-09-11T11:14:26.615Z,8.82
2022-09-11T11:17:14.689Z,8.35
2022-09-11T11:20:03.549Z,9.73
2022-09-11T11:23:16.412Z,9.68
2022-09-11T11:26:07.597Z,9.25
2022-09-11T11:29:04.910Z,10.18
2022-09-11T11:31:45.858Z,9.50
2022-09-11T11:34:25.581Z,7.90
2022-09-11T11:37:12.769Z,8.30
2022-09-11T11:39:52.227Z,9.07
2022-09-11T11:42:39.880Z,7.65
2022-09-11T11:45:21.201Z,7.65
2022-09-11T11:47:50.272Z,9.43
2022-09-11T11:50:33.602Z,8.30
2022-09-11T11:53:06.078Z,8.05
2022-09-11T11:55:44.634Z,6.90
2022-09-11T11:58:21.326Z,7.30
2022-09-11T12:00:56.474Z,7.75
2022-09-11T12:03:36.356Z,8.13
2022-09-11T12:06:05.415Z,6.22
2022-09-11T12:08:32.531Z,6.40
2022-09-11T12:11:07.639Z,5.10
2022-09-11T12:13:42.533Z,6.70
2022-09-11T12:16:11.770Z,6.60
2022-09-11T12:18:38.676Z,6.40
2022-09-11T12:21:23.535Z,5.88
2022-09-11T12:23:50.045Z,5.38
2022-09-11T12:26:22.237Z,7.00
2022-09-11T12:29:14.526Z,7.93
2022-09-11T12:31:49.828Z,7.53
2022-09-11T12:34:18.187Z,9.10
2022-09-11T12:37:02.054Z,7.10
2022-09-11T12:39:34.464Z,8.93
2022-09-11T12:42:23.007Z,9.70
2022-09-11T12:44:49.594Z,7.10
2022-09-11T12:47:23.391Z,7.82
2022-09-11T12:50:07.421Z,5.90
2022-09-11T12:52:46.367Z,6.63
2022-09-11T12:55:31.394Z,5.25
2022-09-11T12:58:02.549Z,5.35
2022-09-11T13:00:39.019Z,4.30
2022-09-11T13:03:15.743Z,5.50
2022-09-11T13:05:44.425Z,5.63
2022-09-11T13:08:23.384Z,4.90
2022-09-11T13:10:50.267Z,4.93
2022-09-11T13:13:35.109Z,4.57
2022-09-11T13:16:25.336Z,5.47
2022-09-11T13:18:58.206Z,5.20
2022-09-11T13:21:26.571Z,5.30
2022-09-11T13:23:53.604Z,4.78
2022-09-11T13:26:31.237Z,5.72
2022-09-11T13:29:00.344Z,5.50
2022-09-11T13:31:34.217Z,7.38
2022-09-11T13:34:03.940Z,6.05
2022-09-11T13:36:31.343Z,6.75
2022-09-11T13:39:01.559Z,7.35
2022-09-11T13:41:31.689Z,5.53
2022-09-11T13:44:02.069Z,6.93
2022-09-11T13:46:31.466Z,8.27
2022-09-11T13:49:33.638Z,8.10
2022-09-11T13:52:00.976Z,7.88
2022-09-11T13:54:31.683Z,6.78
2022-09-11T13:56:58.304Z,5.78
2022-09-11T13:59:44.743Z,6.72
2022-09-11T14:02:38.989Z,4.18
2022-09-11T14:05:17.669Z,3.20
2022-09-11T14:07:57.479Z,3.35
2022-09-11T14:10:30.871Z,3.45
2022-09-11T14:13:15.566Z,3.25
2022-09-11T14:15:43.504Z,4.25
2022-09-11T14:18:19.455Z,3.80
2022-09-11T14:20:46.682Z,3.30
2022-09-11T14:23:20.224Z,2.85
2022-09-11T14:26:08.447Z,2.97
2022-09-11T14:28:45.137Z,2.88
2022-09-11T14:31:14.462Z,3.05
2022-09-11T14:33:41.825Z,2.55
2022-09-11T14:36:19.113Z,2.85
2022-09-11T14:38:47.547Z,2.88
2022-09-11T14:41:14.089Z,2.88
2022-09-11T14:43:40.717Z,3.03
2022-09-11T14:46:07.345Z,3.78
2022-09-11T14:48:35.263Z,3.15
2022-09-11T14:51:09.872Z,3.25
2022-09-11T14:53:42.946Z,5.13
2022-09-11T14:56:10.273Z,2.70
2022-09-11T14:58:36.849Z,4.13
2022-09-11T15:01:03.504Z,3.17
2022-09-11T15:03:30.925Z,3.20
2022-09-11T15:05:58.539Z,3.35
2022-09-11T15:08:25.766Z,3.38
2022-09-11T15:10:53.454Z,4.10
2022-09-11T15:13:21.081Z,3.60
2022-09-11T15:15:47.817Z,4.20
2022-09-11T15:18:14.465Z,5.35
2022-09-11T15:20:41.044Z,6.13
2022-09-11T15:23:07.751Z,5.88
2022-09-11T15:25:34.335Z,4.45
2022-09-11T15:28:01.142Z,5.93
2022-09-11T15:30:27.851Z,4.78
2022-09-11T15:32:54.911Z,4.90
2022-09-11T15:35:23.136Z,6.40
2022-09-11T15:37:49.773Z,4.72
2022-09-11T15:40:16.879Z,5.88
2022-09-11T15:42:43.452Z,4.78
2022-09-11T15:45:12.950Z,5.65
2022-09-11T15:47:40.155Z,4.22
2022-09-11T15:50:07.642Z,4.43
2022-09-11T15:52:35.814Z,8.48
2022-09-11T15:55:03.200Z,4.20
2022-09-11T15:57:31.199Z,4.82
2022-09-11T15:59:57.938Z,4.28
2022-09-11T16:02:24.593Z,4.90
2022-09-11T16:04:53.738Z,3.80
2022-09-11T16:07:20.899Z,3.40
2022-09-11T16:09:47.495Z,4.35
2022-09-11T16:12:15.687Z,3.88
2022-09-11T16:14:43.652Z,4.75
2022-09-11T16:17:10.404Z,3.60
2022-09-11T16:19:38.559Z,3.42
2022-09-11T16:22:06.271Z,4.95
2022-09-11T16:24:37.305Z,3.40
2022-09-11T16:27:07.272Z,4.82
2022-09-11T16:30:08.985Z,3.63
2022-09-11T16:32:28.113Z,3.17
2022-09-11T16:34:57.052Z,4.63
2022-09-11T16:37:24.019Z,3.85
2022-09-11T16:39:50.930Z,3.83
2022-09-11T16:42:21.610Z,3.30
2022-09-11T16:44:49.583Z,3.88
2022-09-11T16:47:17.187Z,3.95
2022-09-11T16:50:06.068Z,3.47
2022-09-11T16:52:31.985Z,3.67
2022-09-11T16:54:58.649Z,5.53
2022-09-11T16:57:27.188Z,4.38
2022-09-11T16:59:53.739Z,5.93
2022-09-11T17:02:20.342Z,7.70
2022-09-11T17:04:46.966Z,7.45
2022-09-11T17:07:13.569Z,6.05
2022-09-11T17:09:40.126Z,6.80
2022-09-11T17:12:06.937Z,7.43
2022-09-11T17:14:34.094Z,6.10
2022-09-11T17:17:00.638Z,6.82
2022-09-11T17:19:27.208Z,6.68
2022-09-11T17:21:54.121Z,8.18
2022-09-11T17:24:21.685Z,7.00
2022-09-11T17:26:50.580Z,7.00
2022-09-11T17:29:19.370Z,5.68
2022-09-11T17:31:46.218Z,6.50
2022-09-11T17:34:14.096Z,6.82
2022-09-11T17:36:40.718Z,6.97
2022-09-11T17:39:07.326Z,5.60
2022-09-11T17:41:33.946Z,4.75
2022-09-11T17:44:00.574Z,7.35
2022-09-11T17:46:28.153Z,7.68
2022-09-11T17:48:54.838Z,5.97
2022-09-11T17:51:24.858Z,6.05
2022-09-11T17:53:53.989Z,6.43
2022-09-11T17:56:23.113Z,8.57
2022-09-11T17:58:50.875Z,6.65
2022-09-11T18:01:18.085Z,7.95
2022-09-11T18:03:50.916Z,8.07
2022-09-11T18:06:34.476Z,7.47
2022-09-11T18:09:05.960Z,7.57
2022-09-11T18:11:32.547Z,8.68
2022-09-11T18:14:00.147Z,7.70
2022-09-11T18:16:27.024Z,9.40
2022-09-11T18:18:56.228Z,9.27
2022-09-11T18:21:23.030Z,7.05
2022-09-11T18:23:49.857Z,9.40
2022-09-11T18:26:29.748Z,7.90
2022-09-11T18:28:59.997Z,8.73
2022-09-11T18:31:30.116Z,9.82
2022-09-11T18:34:00.093Z,9.63
2022-09-11T18:36:28.594Z,11.95
2022-09-11T18:39:00.008Z,9.20
2022-09-11T18:41:27.872Z,11.00
2022-09-11T18:43:56.066Z,10.90
2022-09-11T18:46:23.114Z,9.75
2022-09-11T18:48:52.736Z,10.00
2022-09-11T18:51:20.136Z,8.57
2022-09-11T18:53:51.903Z,9.27
2022-09-11T18:56:20.148Z,9.57
2022-09-11T18:58:49.050Z,11.52
2022-09-11T19:01:17.419Z,9.07
2022-09-11T19:03:45.257Z,10.70
2022-09-11T19:06:14.141Z,12.07
2022-09-11T19:08:42.540Z,10.63
2022-09-11T19:11:12.176Z,11.48
2022-09-11T19:13:39.353Z,11.23
2022-09-11T19:16:06.818Z,9.90
2022-09-11T19:18:35.010Z,10.35
2022-09-11T19:21:04.977Z,10.23
2022-09-11T19:23:37.083Z,11.77
2022-09-11T19:26:05.399Z,11.52
2022-09-11T19:28:35.564Z,10.02
2022-09-11T19:31:02.479Z,10.35
2022-09-11T19:33:30.295Z,9.52
2022-09-11T19:36:00.220Z,10.40
2022-09-11T19:38:27.292Z,9.55
2022-09-11T19:40:57.874Z,10.82
2022-09-11T19:43:24.989Z,10.17
2022-09-11T19:45:51.832Z,10.48
2022-09-11T19:48:18.637Z,12.25
2022-09-11T19:50:45.596Z,10.10
2022-09-11T19:53:12.394Z,10.73
2022-09-11T19:55:39.267Z,12.70
2022-09-11T19:58:05.868Z,12.48
2022-09-11T20:00:35.176Z,12.18
2022-09-11T20:03:02.258Z,10.47
2022-09-11T20:05:30.754Z,14.27
2022-09-11T20:07:57.270Z,10.63
2022-09-11T20:10:23.818Z,10.57
2022-09-11T20:12:50.421Z,13.70
2022-09-11T20:15:17.076Z,11.27
2022-09-11T20:17:44.739Z,14.02
2022-09-11T20:20:11.905Z,11.32
2022-09-11T20:22:38.669Z,12.70
2022-09-11T20:25:05.739Z,11.48
2022-09-11T20:27:33.417Z,11.00
2022-09-11T20:30:00.578Z,10.77
2022-09-11T20:32:27.397Z,11.57
2022-09-11T20:34:53.959Z,10.90
2022-09-11T20:37:20.490Z,10.73
2022-09-11T20:39:47.513Z,9.70
2022-09-11T20:42:14.163Z,10.52
2022-09-11T20:44:40.790Z,11.30
2022-09-11T20:47:09.345Z,10.87
2022-09-11T20:49:35.873Z,12.18
2022-09-11T20:52:03.643Z,11.70
2022-09-11T20:54:30.203Z,10.97
2022-09-11T20:56:56.771Z,10.87
2022-09-11T20:59:23.311Z,10.30
2022-09-11T21:01:49.932Z,10.80
2022-09-11T21:04:16.535Z,9.77
2022-09-11T21:06:43.211Z,13.60
2022-09-11T21:09:11.413Z,9.05
2022-09-11T21:11:39.897Z,9.53
2022-09-11T21:14:07.021Z,8.87
2022-09-11T21:16:34.572Z,8.07
2022-09-11T21:19:01.977Z,7.27
2022-09-11T21:21:29.507Z,6.13
2022-09-11T21:23:57.789Z,6.83
2022-09-11T21:26:26.146Z,6.50
2022-09-11T21:28:52.803Z,5.83
2022-09-11T21:31:19.710Z,5.63
2022-09-11T21:33:46.280Z,5.00
2022-09-11T21:36:12.937Z,4.30
2022-09-11T21:38:39.743Z,6.90
2022-09-11T21:41:09.359Z,4.53
2022-09-11T21:43:36.919Z,4.90
2022-09-11T21:46:04.849Z,5.17
2022-09-11T21:48:39.749Z,4.40
2022-09-11T21:51:09.656Z,5.53
2022-09-11T21:53:37.579Z,4.20
2022-09-11T21:56:04.647Z,5.33
2022-09-11T21:58:32.031Z,4.63
2022-09-11T22:01:08.433Z,4.53
2022-09-11T22:03:35.251Z,5.10
2022-09-11T22:06:06.282Z,5.10
2022-09-11T22:08:32.929Z,5.27
2022-09-11T22:11:03.090Z,5.30
2022-09-11T22:13:30.789Z,4.77
2022-09-11T22:15:57.718Z,4.53
2022-09-11T22:18:24.318Z,4.43
2022-09-11T22:20:50.861Z,6.73
2022-09-11T22:23:22.263Z,4.30
2022-09-11T22:25:56.674Z,4.27
2022-09-11T22:28:23.218Z,4.00
2022-09-11T22:30:49.739Z,3.90
2022-09-11T22:33:16.392Z,3.80
2022-09-11T22:35:44.812Z,3.53
2022-09-11T22:38:14.343Z,3.63
2022-09-11T22:40:40.978Z,4.00
2022-09-11T22:43:08.028Z,3.33
2022-09-11T22:45:34.626Z,4.03
2022-09-11T22:48:02.682Z,3.47
2022-09-11T22:50:29.307Z,3.60
2022-09-11T22:52:55.903Z,3.30
2022-09-11T22:55:22.485Z,3.03
2022-09-11T22:57:49.033Z,4.07
2022-09-11T23:00:15.901Z,2.93
2022-09-11T23:02:42.439Z,8.40
2022-09-11T23:05:27.722Z,3.17
2022-09-11T23:07:54.640Z,3.10
2022-09-11T23:10:21.829Z,3.73
2022-09-11T23:12:48.449Z,2.70
2022-09-11T23:15:15.062Z,3.53
2022-09-11T23:17:41.661Z,3.10
2022-09-11T23:20:08.505Z,3.20
2022-09-11T23:22:35.078Z,3.40
2022-09-11T23:25:01.663Z,3.40
2022-09-11T23:27:28.208Z,3.20
2022-09-11T23:29:55.206Z,3.50
2022-09-11T23:32:21.746Z,3.90
2022-09-11T23:34:48.310Z,3.93
2022-09-11T23:37:14.904Z,3.83
2022-09-11T23:39:43.001Z,3.63
2022-09-11T23:42:09.604Z,3.20
2022-09-11T23:44:36.141Z,6.23
2022-09-11T23:47:02.764Z,3.70
2022-09-11T23:49:33.132Z,3.10
2022-09-11T23:52:02.492Z,4.20
2022-09-11T23:54:29.034Z,4.07
2022-09-11T23:56:55.599Z,3.83
2022-09-11T23:59:22.143Z,4.57
